createdAt,value
2017-10-29T00:00:36.438Z,92.95
2017-10-29T00:03:03.831Z,92.91
2017-10-29T00:05:31.246Z,92.73
2017-10-29T00:07:58.634Z,92.89
2017-10-29T00:10:26.023Z,92.74
2017-10-29T00:12:53.421Z,92.46
2017-10-29T00:15:20.810Z,92.25
2017-10-29T00:17:48.218Z,92.28
2017-10-29T00:20:15.599Z,91.93
2017-10-29T00:22:42.990Z,91.78
2017-10-29T00:25:10.386Z,91.29
2017-10-29T00:27:37.777Z,90.86
2017-10-29T00:30:05.174Z,90.67
2017-10-29T00:32:32.570Z,90.57
2017-10-29T00:34:59.963Z,90.27
2017-10-29T00:37:27.358Z,90.38
2017-10-29T00:39:54.747Z,90.09
2017-10-29T00:42:22.158Z,89.80
2017-10-29T00:44:49.558Z,89.69
2017-10-29T00:47:16.962Z,90.05
2017-10-29T00:49:44.350Z,90.20
2017-10-29T00:52:11.786Z,90.83
2017-10-29T00:54:39.178Z,90.94
2017-10-29T00:57:06.569Z,91.65
2017-10-29T00:59:33.966Z,92.33
2017-10-29T01:02:01.358Z,92.46
2017-10-29T01:04:28.763Z,92.54
2017-10-29T01:06:56.169Z,92.20
2017-10-29T01:09:23.561Z,92.21
2017-10-29T01:11:50.948Z,92.23
2017-10-29T01:14:18.339Z,92.14
2017-10-29T01:16:45.730Z,91.92
2017-10-29T01:19:13.146Z,91.53
2017-10-29T01:21:40.552Z,91.91
2017-10-29T01:24:07.963Z,92.17
2017-10-29T01:26:35.358Z,91.94
2017-10-29T01:29:02.754Z,92.16
2017-10-29T01:31:30.160Z,91.95
2017-10-29T01:33:57.551Z,92.08
2017-10-29T01:36:24.935Z,92.21
2017-10-29T01:38:52.327Z,92.43
2017-10-29T01:41:19.723Z,92.77
2017-10-29T01:43:47.121Z,93.86
2017-10-29T01:46:14.525Z,94.67
2017-10-29T01:48:41.908Z,95.06
2017-10-29T01:51:09.306Z,95.42
2017-10-29T01:53:36.699Z,96.01
2017-10-29T01:56:04.117Z,96.54
2017-10-29T01:58:31.502Z,96.89
2017-10-29T02:00:58.898Z,97.20
2017-10-29T02:03:26.281Z,97.47
2017-10-29T02:05:53.674Z,97.42
2017-10-29T02:08:21.083Z,97.90
2017-10-29T02:10:48.472Z,98.02
2017-10-29T02:13:15.867Z,98.00
2017-10-29T02:15:43.282Z,97.82
2017-10-29T02:18:10.686Z,97.79
2017-10-29T02:20:38.073Z,97.87
2017-10-29T02:23:05.479Z,97.88
2017-10-29T02:25:32.862Z,97.76
2017-10-29T02:28:00.270Z,97.71
2017-10-29T02:30:27.677Z,97.84
2017-10-29T02:32:55.065Z,97.74
2017-10-29T02:35:22.455Z,98.02
2017-10-29T02:37:49.850Z,97.99
2017-10-29T02:40:17.234Z,98.03
2017-10-29T02:42:44.630Z,98.21
2017-10-29T02:45:12.025Z,98.27
2017-10-29T02:47:39.410Z,98.52
2017-10-29T02:50:06.825Z,98.45
2017-10-29T02:52:34.206Z,98.35
2017-10-29T02:55:01.646Z,98.49
2017-10-29T02:57:29.036Z,98.67
2017-10-29T02:59:56.428Z,98.67
2017-10-29T03:02:23.840Z,98.74
2017-10-29T03:04:51.221Z,98.61
2017-10-29T03:07:18.629Z,98.62
2017-10-29T03:09:46.024Z,98.42
2017-10-29T03:12:13.421Z,98.59
2017-10-29T03:14:40.815Z,98.88
2017-10-29T03:17:08.224Z,98.99
2017-10-29T03:19:35.619Z,98.12
2017-10-29T03:22:03.010Z,98.05
2017-10-29T03:24:30.406Z,97.92
2017-10-29T03:26:57.819Z,98.01
2017-10-29T03:29:25.197Z,98.17
2017-10-29T03:31:52.598Z,98.11
2017-10-29T03:34:20.013Z,97.81
2017-10-29T03:36:47.422Z,97.09
2017-10-29T03:39:14.834Z,97.13
2017-10-29T03:41:42.211Z,96.29
2017-10-29T03:44:09.614Z,96.56
2017-10-29T03:46:37.006Z,96.74
2017-10-29T03:49:04.390Z,96.45
2017-10-29T03:51:31.781Z,96.07
2017-10-29T03:53:59.190Z,96.36
2017-10-29T03:56:26.830Z,96.12
2017-10-29T03:58:54.215Z,96.30
2017-10-29T04:01:21.610Z,95.97
2017-10-29T04:03:49.001Z,95.37
2017-10-29T04:06:16.388Z,94.59
2017-10-29T04:08:43.792Z,95.04
2017-10-29T04:11:11.174Z,94.64
2017-10-29T04:13:38.566Z,94.06
2017-10-29T04:16:12.239Z,94.07
2017-10-29T04:18:39.636Z,93.24
2017-10-29T04:21:07.140Z,93.08
2017-10-29T04:23:34.522Z,92.64
2017-10-29T04:26:01.907Z,93.08
2017-10-29T04:28:29.307Z,93.28
2017-10-29T04:30:56.699Z,93.92
2017-10-29T04:33:24.106Z,93.92
2017-10-29T04:35:51.499Z,94.28
2017-10-29T04:38:18.891Z,94.36
2017-10-29T04:40:46.287Z,94.18
2017-10-29T04:43:13.674Z,94.35
2017-10-29T04:45:41.091Z,94.52
2017-10-29T04:48:08.483Z,97.07
2017-10-29T04:50:35.875Z,96.97
2017-10-29T04:53:03.261Z,97.69
2017-10-29T04:55:30.661Z,97.01
2017-10-29T04:57:58.066Z,96.22
2017-10-29T05:00:25.455Z,96.10
2017-10-29T05:02:53.403Z,96.40
2017-10-29T05:05:20.798Z,96.74
2017-10-29T05:07:48.191Z,96.28
2017-10-29T05:10:15.595Z,95.75
2017-10-29T05:12:42.982Z,95.93
2017-10-29T05:15:10.374Z,94.08
2017-10-29T05:17:37.760Z,94.51
2017-10-29T05:20:05.197Z,94.00
2017-10-29T05:22:32.611Z,93.89
2017-10-29T05:24:59.998Z,93.32
2017-10-29T05:27:27.382Z,93.38
2017-10-29T05:29:54.782Z,92.61
2017-10-29T05:32:22.176Z,93.12
2017-10-29T05:34:49.579Z,92.90
2017-10-29T05:37:16.962Z,92.94
2017-10-29T05:39:44.353Z,93.23
2017-10-29T05:42:11.745Z,92.45
2017-10-29T05:44:39.143Z,92.47
2017-10-29T05:47:06.529Z,91.65
2017-10-29T05:49:33.944Z,92.70
2017-10-29T05:52:01.320Z,91.00
2017-10-29T05:54:28.714Z,91.77
2017-10-29T05:56:56.102Z,92.00
2017-10-29T05:59:23.506Z,92.09
2017-10-29T06:01:50.902Z,91.77
2017-10-29T06:04:18.290Z,90.33
2017-10-29T06:06:45.678Z,91.21
2017-10-29T06:09:13.067Z,89.95
2017-10-29T06:11:40.471Z,90.67
2017-10-29T06:14:07.861Z,89.56
2017-10-29T06:16:35.250Z,89.31
2017-10-29T06:19:02.649Z,89.19
2017-10-29T06:21:30.039Z,89.31
2017-10-29T06:23:57.442Z,88.85
2017-10-29T06:26:24.835Z,88.21
2017-10-29T06:28:52.218Z,88.12
2017-10-29T06:31:19.610Z,86.30
2017-10-29T06:33:46.994Z,87.72
2017-10-29T06:36:14.402Z,85.78
2017-10-29T06:38:41.793Z,86.09
2017-10-29T06:41:09.181Z,85.60
2017-10-29T06:43:36.584Z,85.20
2017-10-29T06:46:03.967Z,85.45
2017-10-29T06:48:31.378Z,85.32
2017-10-29T06:50:58.765Z,84.58
2017-10-29T06:53:26.154Z,83.57
2017-10-29T06:55:53.551Z,85.04
2017-10-29T06:58:20.964Z,83.83
2017-10-29T07:00:48.358Z,81.79
2017-10-29T07:03:15.744Z,82.56
2017-10-29T07:05:43.134Z,80.14
2017-10-29T07:08:10.542Z,81.14
2017-10-29T07:10:37.914Z,79.46
2017-10-29T07:13:05.319Z,78.73
2017-10-29T07:15:32.711Z,78.73
2017-10-29T07:18:00.106Z,78.08
2017-10-29T07:20:27.502Z,78.12
2017-10-29T07:22:58.573Z,77.04
2017-10-29T07:25:25.974Z,76.22
2017-10-29T07:27:53.358Z,74.95
2017-10-29T07:30:20.746Z,76.36
2017-10-29T07:32:48.149Z,76.17
2017-10-29T07:35:15.543Z,75.96
2017-10-29T07:37:42.941Z,77.39
2017-10-29T07:40:10.326Z,77.06
2017-10-29T07:42:37.727Z,78.25
2017-10-29T07:45:05.118Z,76.56
2017-10-29T07:47:32.505Z,74.87
2017-10-29T07:49:59.910Z,75.59
2017-10-29T07:52:27.298Z,74.84
2017-10-29T07:54:54.738Z,74.40
2017-10-29T07:57:22.146Z,73.31
2017-10-29T07:59:49.535Z,74.81
